Time;durP1;ratioP1;P1;durP2;ratioP2;P2;SDS_P1;SDS_P2;PMS_P1;PMS_P2;Temp;Humidity;BMP_temperature;BMP_pressure;BME280_temperature;BME280_humidity;BME280_pressure;Samples;Min_cycle;Max_cycle;Signal;HPM_P1;HPM_P2
2021/10/16 00:00:06;;;;;;;3.90;2.40;;;18.30;97.10;;;;;;5073518;28;20448;-73
2021/10/16 00:02:37;;;;;;;2.40;2.17;;;18.20;96.60;;;;;;5060788;28;20455;-72
2021/10/16 00:05:08;;;;;;;2.20;2.10;;;18.10;96.90;;;;;;5074673;28;20985;-73
2021/10/16 00:07:39;;;;;;;3.00;2.33;;;18.20;96.30;;;;;;5075044;28;20563;-72
2021/10/16 00:10:10;;;;;;;3.23;2.50;;;18.10;97.70;;;;;;5065916;28;21006;-73
2021/10/16 00:12:42;;;;;;;2.80;2.47;;;17.90;98.50;;;;;;5079428;28;20557;-72
2021/10/16 00:15:15;;;;;;;2.50;2.23;;;17.80;98.30;;;;;;5070706;28;20467;-71
2021/10/16 00:17:46;;;;;;;2.70;2.50;;;17.70;98.80;;;;;;5067492;28;20467;-72
2021/10/16 00:20:16;;;;;;;2.20;2.00;;;17.60;99.80;;;;;;5075541;28;20474;-72
2021/10/16 00:22:53;;;;;;;2.37;2.17;;;17.40;99.90;;;;;;5080387;28;20796;-73
2021/10/16 00:25:31;;;;;;;2.67;2.20;;;17.30;99.90;;;;;;5075846;28;20474;-73
2021/10/16 00:28:03;;;;;;;3.40;2.30;;;17.20;99.90;;;;;;5068248;28;20979;-70
2021/10/16 00:30:36;;;;;;;3.53;2.50;;;17.20;99.90;;;;;;5062787;28;20481;-71
2021/10/16 00:33:07;;;;;;;2.93;2.73;;;17.10;99.90;;;;;;5061693;28;20843;-72
2021/10/16 00:35:38;;;;;;;3.80;2.90;;;16.90;99.90;;;;;;5069143;28;20485;-71
2021/10/16 00:38:09;;;;;;;3.30;3.00;;;16.90;99.90;;;;;;5063249;28;20463;-70
2021/10/16 00:40:40;;;;;;;3.20;2.90;;;16.90;99.90;;;;;;5065775;28;20463;-72
2021/10/16 00:43:11;;;;;;;2.73;2.53;;;16.80;99.90;;;;;;5068026;28;20990;-72
2021/10/16 00:45:44;;;;;;;2.90;2.60;;;16.60;99.90;;;;;;5069425;28;20461;-71
2021/10/16 00:48:14;;;;;;;2.73;2.53;;;16.60;99.90;;;;;;5067073;28;20645;-70
2021/10/16 00:50:45;;;;;;;5.13;3.43;;;16.60;99.90;;;;;;5074365;28;20532;-71
2021/10/16 00:53:17;;;;;;;4.40;3.40;;;16.50;99.90;;;;;;5063926;28;20509;-72
2021/10/16 00:55:51;;;;;;;4.13;3.30;;;16.50;99.90;;;;;;5055116;28;20476;-70
2021/10/16 00:58:23;;;;;;;3.30;3.00;;;16.40;99.90;;;;;;5054043;28;20434;-70
2021/10/16 01:00:55;;;;;;;5.93;4.23;;;16.40;99.90;;;;;;5071931;28;20429;-70
2021/10/16 01:03:26;;;;;;;6.37;4.20;;;16.60;99.90;;;;;;5078866;28;20455;-71
2021/10/16 01:05:57;;;;;;;5.93;3.77;;;16.50;99.90;;;;;;5063885;28;20454;-70
2021/10/16 01:08:28;;;;;;;4.70;4.30;;;16.40;99.90;;;;;;5070242;28;20430;-68
2021/10/16 01:10:59;;;;;;;5.40;4.90;;;16.40;99.90;;;;;;5066496;28;20470;-68
2021/10/16 01:13:31;;;;;;;4.70;4.33;;;16.40;99.90;;;;;;5068314;28;20490;-68
2021/10/16 01:16:03;;;;;;;4.43;4.03;;;16.30;99.90;;;;;;5063909;28;20833;-69
2021/10/16 01:18:35;;;;;;;5.33;4.70;;;16.10;99.90;;;;;;5063709;28;20474;-70
2021/10/16 01:21:09;;;;;;;4.73;4.33;;;16.00;99.90;;;;;;5063024;28;20442;-69
2021/10/16 01:23:40;;;;;;;6.00;5.17;;;15.90;99.90;;;;;;5068376;28;20458;-69
2021/10/16 01:26:11;;;;;;;6.03;5.27;;;15.70;99.90;;;;;;5077607;28;20447;-69
2021/10/16 01:28:43;;;;;;;6.10;5.50;;;15.60;99.90;;;;;;5076159;28;20463;-69
2021/10/16 01:31:14;;;;;;;6.43;5.83;;;15.60;99.90;;;;;;5064376;28;20459;-70
2021/10/16 01:33:45;;;;;;;6.57;5.70;;;15.40;99.90;;;;;;5066286;28;20847;-68
2021/10/16 01:36:18;;;;;;;5.63;5.13;;;15.30;99.90;;;;;;5066989;28;20474;-68
2021/10/16 01:38:49;;;;;;;6.17;5.40;;;15.20;99.90;;;;;;5068567;28;20459;-71
2021/10/16 01:41:20;;;;;;;7.30;5.63;;;15.20;99.90;;;;;;5067262;28;20470;-73
2021/10/16 01:43:50;;;;;;;6.13;5.63;;;15.10;99.90;;;;;;5067516;28;20450;-71
2021/10/16 01:46:21;;;;;;;5.83;5.37;;;15.00;99.90;;;;;;5065682;28;20523;-70
2021/10/16 01:48:52;;;;;;;7.10;6.50;;;14.80;99.90;;;;;;5069336;28;20463;-71
2021/10/16 01:51:24;;;;;;;6.37;5.77;;;14.70;99.90;;;;;;5077109;28;20481;-71
2021/10/16 01:53:55;;;;;;;6.83;6.30;;;14.50;99.90;;;;;;5077331;28;20483;-70
2021/10/16 01:56:26;;;;;;;8.10;7.47;;;14.40;99.90;;;;;;5048559;28;20450;-69
2021/10/16 01:58:57;;;;;;;11.63;8.60;;;14.30;99.90;;;;;;5048261;28;20456;-70
2021/10/16 02:01:27;;;;;;;8.47;7.50;;;14.10;99.90;;;;;;5059661;28;20455;-72
2021/10/16 02:03:59;;;;;;;11.90;9.20;;;14.10;99.90;;;;;;5069231;28;20459;-72
2021/10/16 02:06:31;;;;;;;14.50;11.60;;;14.00;99.90;;;;;;5069489;28;20519;-72
2021/10/16 02:09:02;;;;;;;13.93;10.63;;;14.00;99.90;;;;;;5068361;28;20458;-72
2021/10/16 02:11:33;;;;;;;12.97;11.60;;;13.90;99.90;;;;;;5079886;28;20827;-73
2021/10/16 02:14:04;;;;;;;13.13;11.50;;;13.80;99.90;;;;;;5073363;28;20479;-74
2021/10/16 02:16:35;;;;;;;14.57;11.47;;;13.80;99.90;;;;;;5067628;28;20475;-73
2021/10/16 02:19:06;;;;;;;13.37;11.53;;;13.80;99.90;;;;;;5069472;28;20862;-70
2021/10/16 02:21:38;;;;;;;12.17;10.90;;;13.80;99.90;;;;;;5066990;28;20475;-73
2021/10/16 02:24:09;;;;;;;10.90;9.80;;;13.60;99.90;;;;;;5067075;28;20515;-78
2021/10/16 02:26:41;;;;;;;10.17;9.27;;;13.60;99.90;;;;;;5081444;28;20824;-79
2021/10/16 02:29:11;;;;;;;9.60;8.67;;;13.50;99.90;;;;;;5076276;28;20470;-73
2021/10/16 02:31:42;;;;;;;11.23;9.23;;;13.50;99.90;;;;;;5068805;28;20454;-75
2021/10/16 02:34:13;;;;;;;9.97;9.00;;;13.40;99.90;;;;;;5076042;28;20955;-71
2021/10/16 02:36:45;;;;;;;10.70;8.70;;;13.20;99.90;;;;;;5065395;28;20474;-69
2021/10/16 02:39:16;;;;;;;11.87;10.67;;;13.20;99.90;;;;;;5067091;28;20463;-69
2021/10/16 02:41:47;;;;;;;15.43;12.40;;;13.10;99.90;;;;;;5067513;28;20941;-69
2021/10/16 02:44:18;;;;;;;19.43;14.27;;;13.00;99.90;;;;;;5064753;28;20463;-68
2021/10/16 02:46:49;;;;;;;19.70;15.20;;;13.00;99.90;;;;;;5063544;28;20790;-68
2021/10/16 02:49:20;;;;;;;17.83;14.30;;;12.90;99.90;;;;;;5066638;28;20558;-69
2021/10/16 02:51:52;;;;;;;18.37;13.63;;;12.80;99.90;;;;;;5067564;28;20451;-69
2021/10/16 02:54:23;;;;;;;18.73;14.37;;;12.80;99.90;;;;;;5065518;28;20840;-71
2021/10/16 02:56:54;;;;;;;16.80;15.00;;;12.70;99.90;;;;;;5069647;28;20463;-69
2021/10/16 02:59:24;;;;;;;21.63;15.37;;;12.60;99.90;;;;;;5072257;28;20538;-69
2021/10/16 03:01:55;;;;;;;15.60;13.83;;;12.50;99.90;;;;;;5081341;28;20800;-69
2021/10/16 03:04:26;;;;;;;19.23;13.70;;;12.50;99.90;;;;;;5077112;28;20569;-69
2021/10/16 03:06:59;;;;;;;15.47;12.43;;;12.40;99.90;;;;;;5092067;28;20451;-69
2021/10/16 03:09:29;;;;;;;18.20;12.73;;;12.40;99.90;;;;;;5073806;28;20471;-70
2021/10/16 03:12:00;;;;;;;18.03;13.50;;;12.40;99.90;;;;;;5078733;28;20531;-70
2021/10/16 03:14:31;;;;;;;17.40;13.40;;;12.30;99.90;;;;;;5090158;28;20477;-69
2021/10/16 03:17:02;;;;;;;20.03;14.00;;;12.30;99.90;;;;;;5066228;28;20582;-69
2021/10/16 03:19:33;;;;;;;18.70;12.60;;;12.20;99.90;;;;;;5065045;28;20498;-69
2021/10/16 03:22:05;;;;;;;14.07;12.53;;;12.20;99.90;;;;;;5070852;28;20493;-70
2021/10/16 03:24:37;;;;;;;20.40;13.97;;;12.20;99.90;;;;;;5062891;28;20455;-70
2021/10/16 03:27:08;;;;;;;16.10;14.47;;;12.10;99.90;;;;;;5062964;28;20463;-69
2021/10/16 03:29:39;;;;;;;13.73;12.27;;;12.10;99.90;;;;;;5072704;28;20461;-71
2021/10/16 03:32:10;;;;;;;12.37;11.17;;;12.00;99.90;;;;;;5084561;28;20506;-70
2021/10/16 03:34:41;;;;;;;11.33;10.23;;;11.90;99.90;;;;;;5081128;28;20486;-69
2021/10/16 03:37:13;;;;;;;11.13;10.10;;;11.90;99.90;;;;;;5068722;28;20458;-68
2021/10/16 03:39:44;;;;;;;11.07;9.93;;;11.90;99.90;;;;;;5077203;28;20932;-68
2021/10/16 03:42:15;;;;;;;11.13;10.07;;;12.00;99.90;;;;;;5080790;28;20538;-68
2021/10/16 03:44:46;;;;;;;11.03;9.90;;;11.90;99.90;;;;;;5073303;28;20455;-68
2021/10/16 03:47:16;;;;;;;11.40;10.20;;;11.90;99.90;;;;;;5064209;28;20860;-67
2021/10/16 03:49:47;;;;;;;11.90;10.67;;;12.00;99.90;;;;;;5082677;28;20466;-67
2021/10/16 03:52:20;;;;;;;11.63;9.93;;;12.00;99.90;;;;;;5075141;28;20538;-67
2021/10/16 03:54:50;;;;;;;11.97;10.70;;;12.00;99.90;;;;;;5084149;28;20973;-67
2021/10/16 03:57:21;;;;;;;12.30;11.10;;;12.00;99.90;;;;;;5088256;28;20450;-68
2021/10/16 03:59:52;;;;;;;12.73;11.50;;;12.00;99.90;;;;;;5084198;28;20463;-68
2021/10/16 04:02:25;;;;;;;12.67;11.30;;;12.00;99.90;;;;;;5085757;28;20463;-67
2021/10/16 04:04:56;;;;;;;12.20;11.03;;;12.00;99.90;;;;;;5086766;28;20971;-68
2021/10/16 04:07:28;;;;;;;13.73;11.17;;;12.00;99.90;;;;;;5068508;28;20835;-67
2021/10/16 04:09:59;;;;;;;13.00;11.90;;;12.00;99.90;;;;;;5083704;28;20478;-68
2021/10/16 04:12:30;;;;;;;13.57;12.20;;;12.00;99.90;;;;;;5074793;28;20759;-68
2021/10/16 04:15:01;;;;;;;13.17;11.70;;;11.90;99.90;;;;;;5071889;28;20479;-68
2021/10/16 04:17:31;;;;;;;14.43;13.03;;;11.90;99.90;;;;;;5061877;28;20963;-69
2021/10/16 04:20:02;;;;;;;13.70;12.40;;;11.90;99.90;;;;;;5079056;28;20452;-69
2021/10/16 04:22:35;;;;;;;14.30;12.90;;;11.90;99.90;;;;;;5076741;28;20467;-69
2021/10/16 04:25:06;;;;;;;15.30;13.60;;;11.80;99.90;;;;;;5084315;28;20462;-69
2021/10/16 04:27:37;;;;;;;14.70;13.30;;;11.70;99.90;;;;;;5077996;28;20474;-70
2021/10/16 04:30:09;;;;;;;14.43;13.10;;;11.70;99.90;;;;;;5075804;28;20521;-70
2021/10/16 04:32:40;;;;;;;14.27;12.77;;;11.70;99.90;;;;;;5067044;28;21007;-70
2021/10/16 04:35:12;;;;;;;15.73;14.30;;;11.70;99.90;;;;;;5076801;28;20481;-70
2021/10/16 04:37:50;;;;;;;15.80;14.40;;;11.70;99.90;;;;;;5075636;28;20487;-71
2021/10/16 04:40:28;;;;;;;16.20;14.80;;;11.70;99.90;;;;;;5079774;28;20447;-70
2021/10/16 04:43:12;;;;;;;15.53;14.03;;;11.70;99.90;;;;;;5073222;28;20474;-71
2021/10/16 04:45:46;;;;;;;16.33;15.00;;;11.70;99.90;;;;;;5062499;28;20479;-70
2021/10/16 04:48:17;;;;;;;17.87;16.23;;;11.70;99.90;;;;;;5080922;28;20462;-70
2021/10/16 04:50:52;;;;;;;17.83;16.13;;;11.70;99.90;;;;;;5083397;28;20463;-70
2021/10/16 04:53:26;;;;;;;17.10;15.47;;;11.70;99.90;;;;;;5058567;28;20491;-70
2021/10/16 04:55:57;;;;;;;17.00;15.40;;;11.60;99.90;;;;;;5053387;28;20822;-70
2021/10/16 04:58:28;;;;;;;15.17;13.87;;;11.70;99.90;;;;;;5058528;28;20513;-70
2021/10/16 05:00:59;;;;;;;14.60;13.30;;;11.70;99.90;;;;;;5052570;28;20476;-68
2021/10/16 05:03:30;;;;;;;16.47;14.87;;;11.60;99.90;;;;;;5054438;28;20981;-68
2021/10/16 05:06:01;;;;;;;19.60;17.50;;;11.60;99.90;;;;;;5056931;28;20460;-68
2021/10/16 05:08:34;;;;;;;20.90;19.00;;;11.60;99.90;;;;;;5051291;28;20847;-69
2021/10/16 05:11:05;;;;;;;19.17;17.57;;;11.60;99.90;;;;;;5049984;28;20476;-69
2021/10/16 05:13:40;;;;;;;20.17;18.37;;;11.50;99.90;;;;;;5051750;28;20560;-69
2021/10/16 05:16:11;;;;;;;20.60;18.90;;;11.40;99.90;;;;;;5046678;28;20526;-69
2021/10/16 05:18:42;;;;;;;26.40;23.80;;;11.40;99.90;;;;;;5050229;28;20474;-69
2021/10/16 05:21:13;;;;;;;28.70;26.00;;;11.30;99.90;;;;;;5055840;28;20472;-69
2021/10/16 05:23:45;;;;;;;25.50;22.87;;;11.20;99.90;;;;;;5048254;28;20463;-69
2021/10/16 05:26:16;;;;;;;35.63;32.30;;;11.10;99.90;;;;;;5047314;28;20780;-69
2021/10/16 05:28:47;;;;;;;35.47;32.07;;;11.10;99.90;;;;;;5059696;28;20539;-68
2021/10/16 05:31:18;;;;;;;51.90;47.23;;;11.10;99.90;;;;;;5062290;28;20447;-69
2021/10/16 05:33:48;;;;;;;46.70;42.23;;;11.20;99.90;;;;;;5051783;28;20560;-69
2021/10/16 05:36:19;;;;;;;45.03;40.20;;;11.10;99.90;;;;;;5045908;28;20468;-69
2021/10/16 05:38:52;;;;;;;42.03;37.63;;;11.20;99.90;;;;;;5052632;28;20468;-69
2021/10/16 05:41:23;;;;;;;37.47;34.07;;;11.10;99.90;;;;;;5055631;28;20454;-69
2021/10/16 05:43:53;;;;;;;27.23;24.67;;;11.20;99.90;;;;;;5053821;28;20486;-69
2021/10/16 05:46:24;;;;;;;24.60;22.03;;;11.20;99.90;;;;;;5052129;28;20484;-69
2021/10/16 05:48:55;;;;;;;19.93;18.13;;;11.20;99.90;;;;;;5051323;28;20968;-69
2021/10/16 05:51:26;;;;;;;20.47;18.53;;;11.10;99.90;;;;;;5057973;28;20939;-69
2021/10/16 05:53:58;;;;;;;21.03;19.07;;;11.00;99.90;;;;;;5048805;28;20491;-69
2021/10/16 05:56:29;;;;;;;20.60;18.77;;;11.00;99.90;;;;;;5040388;28;20853;-69
2021/10/16 05:59:00;;;;;;;19.97;18.17;;;11.00;99.90;;;;;;5052656;28;20482;-68
2021/10/16 06:01:31;;;;;;;20.97;19.07;;;10.90;99.90;;;;;;5058332;28;20840;-69
2021/10/16 06:04:02;;;;;;;20.33;18.40;;;10.80;99.90;;;;;;5052010;28;20468;-68
2021/10/16 06:06:32;;;;;;;19.70;17.90;;;10.80;99.90;;;;;;5049245;28;20571;-67
2021/10/16 06:09:05;;;;;;;22.37;20.27;;;10.70;99.90;;;;;;5053707;28;20459;-66
2021/10/16 06:11:36;;;;;;;21.47;19.37;;;10.70;99.90;;;;;;5051807;28;20466;-67
2021/10/16 06:14:07;;;;;;;21.17;19.27;;;10.70;99.90;;;;;;5058792;28;20460;-67
2021/10/16 06:16:38;;;;;;;20.53;18.50;;;10.60;99.90;;;;;;5056535;28;20953;-68
2021/10/16 06:19:08;;;;;;;20.70;18.80;;;10.50;99.90;;;;;;5047802;28;20930;-67
2021/10/16 06:21:39;;;;;;;21.03;18.83;;;10.40;99.90;;;;;;5050631;28;20798;-70
2021/10/16 06:24:13;;;;;;;19.97;18.00;;;10.40;99.90;;;;;;5054172;28;20483;-66
2021/10/16 06:26:44;;;;;;;18.17;16.57;;;10.40;99.90;;;;;;5051360;28;20463;-67
2021/10/16 06:29:14;;;;;;;19.80;17.40;;;10.40;99.90;;;;;;5048533;28;20551;-68
2021/10/16 06:31:45;;;;;;;19.57;17.63;;;10.40;99.90;;;;;;5067786;28;20462;-68
2021/10/16 06:34:16;;;;;;;20.17;18.20;;;10.50;99.90;;;;;;5047236;28;20470;-67
2021/10/16 06:36:47;;;;;;;20.40;17.67;;;10.50;99.90;;;;;;5050975;28;20468;-67
2021/10/16 06:39:19;;;;;;;18.70;16.97;;;10.40;99.90;;;;;;5058247;28;20460;-67
2021/10/16 06:41:50;;;;;;;18.37;16.57;;;10.40;99.90;;;;;;5060199;28;20996;-67
2021/10/16 06:44:21;;;;;;;21.07;17.53;;;10.30;99.90;;;;;;5067156;28;20470;-67
2021/10/16 06:46:52;;;;;;;18.50;16.80;;;10.30;99.90;;;;;;5046812;28;20476;-67
2021/10/16 06:49:23;;;;;;;18.37;16.57;;;10.30;99.90;;;;;;5048786;28;20526;-67
2021/10/16 06:51:53;;;;;;;18.47;16.77;;;10.20;99.90;;;;;;5051178;28;20480;-67
2021/10/16 06:54:26;;;;;;;18.80;17.20;;;10.20;99.90;;;;;;5049506;28;20833;-67
2021/10/16 06:56:56;;;;;;;19.37;17.27;;;10.20;99.90;;;;;;5057643;28;20524;-67
2021/10/16 06:59:27;;;;;;;19.25;17.30;;;10.10;99.90;;;;;;5059271;28;20458;-67
2021/10/16 07:01:58;;;;;;;18.43;16.63;;;10.10;99.90;;;;;;5050177;28;20234;-67
2021/10/16 07:04:29;;;;;;;18.27;16.67;;;10.10;99.90;;;;;;5053089;28;20504;-67
2021/10/16 07:07:00;;;;;;;17.95;16.25;;;10.00;99.90;;;;;;5066566;28;20216;-67
2021/10/16 07:09:32;;;;;;;20.05;18.17;;;10.10;99.90;;;;;;5049165;28;20244;-67
2021/10/16 07:12:03;;;;;;;18.83;16.90;;;10.10;99.90;;;;;;5048312;28;20250;-67
2021/10/16 07:14:34;;;;;;;19.10;17.10;;;10.10;99.90;;;;;;5051706;28;20233;-67
2021/10/16 07:17:05;;;;;;;19.80;17.90;;;10.10;99.90;;;;;;5046858;28;20647;-67
2021/10/16 07:19:35;;;;;;;18.27;16.58;;;10.10;99.90;;;;;;5040711;28;20460;-67
2021/10/16 07:22:06;;;;;;;18.03;16.40;;;10.10;99.90;;;;;;5048343;28;20221;-67
2021/10/16 07:24:39;;;;;;;19.17;17.38;;;10.20;99.90;;;;;;5052637;28;20472;-67
2021/10/16 07:27:09;;;;;;;19.73;17.73;;;10.30;99.90;;;;;;5057008;28;20312;-67
2021/10/16 07:29:40;;;;;;;20.08;18.20;;;10.30;99.90;;;;;;5056744;28;20464;-67
2021/10/16 07:32:11;;;;;;;19.40;17.30;;;10.40;99.90;;;;;;5054938;28;20217;-66
2021/10/16 07:34:42;;;;;;;18.40;16.77;;;10.40;99.90;;;;;;5052233;28;20463;-67
2021/10/16 07:37:13;;;;;;;18.53;16.70;;;10.30;99.90;;;;;;5042653;28;20506;-66
2021/10/16 07:39:45;;;;;;;20.52;18.65;;;10.30;99.90;;;;;;5054585;28;20460;-67
2021/10/16 07:42:16;;;;;;;19.03;17.23;;;10.30;99.90;;;;;;5053991;28;20592;-66
2021/10/16 07:44:47;;;;;;;20.55;18.63;;;10.30;99.90;;;;;;5061883;28;20470;-67
2021/10/16 07:47:17;;;;;;;21.17;19.13;;;10.40;99.90;;;;;;5042170;28;20240;-66
2021/10/16 07:49:48;;;;;;;21.60;19.37;;;10.30;99.90;;;;;;5048333;28;20241;-67
2021/10/16 07:52:19;;;;;;;21.03;19.10;;;10.30;99.90;;;;;;5059394;28;20458;-66
2021/10/16 07:54:51;;;;;;;20.90;19.00;;;10.30;99.90;;;;;;5047844;28;20494;-67
2021/10/16 07:57:22;;;;;;;20.40;18.50;;;10.20;99.90;;;;;;5044317;28;20316;-67
2021/10/16 07:59:53;;;;;;;20.13;18.33;;;10.20;99.90;;;;;;5060390;28;20467;-66
2021/10/16 08:02:24;;;;;;;20.77;18.77;;;10.20;99.90;;;;;;5047674;28;20285;-67
2021/10/16 08:04:56;;;;;;;20.92;19.02;;;10.10;99.90;;;;;;5057939;28;20460;-67
2021/10/16 08:07:27;;;;;;;20.13;18.10;;;10.10;99.90;;;;;;5053334;28;20229;-67
2021/10/16 08:10:00;;;;;;;19.90;18.00;;;10.00;99.90;;;;;;5064624;28;20512;-67
2021/10/16 08:12:30;;;;;;;21.10;18.90;;;10.00;99.90;;;;;;5056414;28;20831;-67
2021/10/16 08:15:01;;;;;;;23.07;20.80;;;10.10;99.90;;;;;;5057293;28;20228;-67
2021/10/16 08:17:32;;;;;;;22.55;20.33;;;10.10;99.90;;;;;;5052788;28;20830;-67
2021/10/16 08:20:03;;;;;;;22.30;20.02;;;10.10;99.90;;;;;;5050150;28;20225;-67
2021/10/16 08:22:40;;;;;;;23.65;21.38;;;10.10;99.90;;;;;;5059776;28;20610;-67
2021/10/16 08:25:13;;;;;;;22.42;20.08;;;10.10;99.90;;;;;;5056692;28;20570;-67
2021/10/16 08:27:46;;;;;;;22.70;20.45;;;10.00;99.90;;;;;;5062122;28;20216;-67
2021/10/16 08:30:18;;;;;;;21.63;19.60;;;10.00;99.90;;;;;;5053378;28;20593;-67
2021/10/16 08:32:49;;;;;;;21.33;19.42;;;10.00;99.90;;;;;;5061887;28;20301;-67
2021/10/16 08:35:20;;;;;;;21.10;19.00;;;9.90;99.90;;;;;;5067804;28;20213;-66
2021/10/16 08:37:50;;;;;;;19.42;17.63;;;9.90;99.90;;;;;;5055305;28;20455;-67
2021/10/16 08:40:25;;;;;;;21.05;19.05;;;9.80;99.90;;;;;;5043914;28;20275;-67
2021/10/16 08:42:56;;;;;;;21.65;19.45;;;9.80;99.90;;;;;;5053602;28;20205;-67
2021/10/16 08:45:27;;;;;;;20.60;18.45;;;9.70;99.90;;;;;;5056845;28;20568;-66
2021/10/16 08:47:58;;;;;;;20.95;19.00;;;9.70;99.90;;;;;;5051737;28;20232;-67
2021/10/16 08:50:29;;;;;;;22.30;20.17;;;9.70;99.90;;;;;;5055074;28;20213;-66
2021/10/16 08:53:00;;;;;;;21.27;19.25;;;9.60;99.90;;;;;;5057374;28;20225;-67
2021/10/16 08:55:33;;;;;;;21.50;19.50;;;9.60;99.90;;;;;;5047737;28;20222;-66
2021/10/16 08:58:04;;;;;;;21.75;19.65;;;9.60;99.90;;;;;;5050455;28;20464;-67
2021/10/16 09:00:44;;;;;;;23.00;20.65;;;9.60;99.90;;;;;;5057322;28;20685;-67
2021/10/16 09:03:30;;;;;;;22.27;20.05;;;9.60;99.90;;;;;;5044485;28;20228;-66
2021/10/16 09:06:09;;;;;;;22.10;19.90;;;9.50;99.90;;;;;;5063607;28;20213;-67
2021/10/16 09:08:43;;;;;;;20.77;18.87;;;9.50;99.90;;;;;;5053059;28;20261;-67
2021/10/16 09:11:25;;;;;;;22.90;20.40;;;9.40;99.90;;;;;;5045010;28;20559;-67
2021/10/16 09:14:07;;;;;;;23.63;21.40;;;9.40;99.90;;;;;;5046159;28;20214;-67
2021/10/16 09:16:40;;;;;;;23.90;21.15;;;9.40;99.90;;;;;;5045479;28;20233;-67
2021/10/16 09:19:14;;;;;;;27.55;21.90;;;9.40;99.90;;;;;;5042486;28;20571;-67
2021/10/16 09:21:49;;;;;;;24.23;21.55;;;9.30;99.90;;;;;;5048293;28;20222;-68
2021/10/16 09:24:24;;;;;;;22.15;20.13;;;9.30;99.90;;;;;;5054988;28;20233;-68
2021/10/16 09:26:58;;;;;;;24.00;21.80;;;9.30;99.90;;;;;;5048157;28;20307;-67
2021/10/16 09:29:31;;;;;;;21.90;19.35;;;9.20;99.90;;;;;;5053831;28;20229;-67
2021/10/16 09:32:04;;;;;;;23.30;20.85;;;9.10;99.90;;;;;;5057625;28;20218;-67
2021/10/16 09:34:36;;;;;;;21.23;19.15;;;9.10;99.90;;;;;;5043713;28;20214;-67
2021/10/16 09:37:09;;;;;;;20.17;18.27;;;9.00;99.90;;;;;;5058066;28;20573;-68
2021/10/16 09:39:41;;;;;;;22.20;19.88;;;9.00;99.90;;;;;;5054756;28;20233;-67
2021/10/16 09:42:14;;;;;;;21.42;19.40;;;9.00;99.90;;;;;;5050798;28;20247;-67
2021/10/16 09:44:47;;;;;;;22.17;20.17;;;9.00;99.90;;;;;;5056530;28;20671;-67
2021/10/16 09:47:19;;;;;;;22.42;20.02;;;8.90;99.90;;;;;;5045028;28;20233;-67
2021/10/16 09:49:51;;;;;;;19.88;17.85;;;9.00;99.90;;;;;;5043277;28;20232;-67
2021/10/16 09:52:22;;;;;;;22.23;20.25;;;8.90;99.90;;;;;;5044887;28;20728;-67
2021/10/16 09:54:53;;;;;;;21.58;19.35;;;8.90;99.90;;;;;;5042344;28;20251;-67
2021/10/16 09:57:26;;;;;;;22.40;20.30;;;8.80;99.90;;;;;;5047800;28;20237;-67
2021/10/16 10:00:00;;;;;;;21.83;19.52;;;8.80;99.90;;;;;;5053101;28;20679;-67
2021/10/16 10:02:31;;;;;;;21.23;19.13;;;8.80;99.90;;;;;;5054007;28;20232;-66
2021/10/16 10:05:04;;;;;;;21.70;19.48;;;8.80;99.90;;;;;;5051702;28;20232;-66
2021/10/16 10:07:36;;;;;;;20.95;18.83;;;8.80;99.90;;;;;;5061771;28;20600;-67
2021/10/16 10:10:08;;;;;;;22.70;20.38;;;8.70;99.90;;;;;;5048439;28;20606;-67
2021/10/16 10:12:41;;;;;;;21.83;19.60;;;8.70;99.90;;;;;;5050157;28;20217;-68
2021/10/16 10:15:13;;;;;;;22.23;19.90;;;8.70;99.90;;;;;;5056650;28;20232;-67
2021/10/16 10:17:44;;;;;;;21.02;19.00;;;8.70;99.90;;;;;;5042938;28;20225;-66
2021/10/16 10:20:16;;;;;;;21.70;19.70;;;8.70;99.90;;;;;;5048689;28;20268;-71
2021/10/16 10:22:48;;;;;;;21.13;19.02;;;8.60;99.90;;;;;;5047123;28;20244;-69
2021/10/16 10:25:25;;;;;;;22.60;19.75;;;8.60;99.90;;;;;;5050625;28;20213;-69
2021/10/16 10:27:58;;;;;;;23.40;19.52;;;8.60;99.90;;;;;;5057005;28;20224;-68
2021/10/16 10:30:45;;;;;;;19.50;17.60;;;8.50;99.90;;;;;;5061508;28;20221;-68
2021/10/16 10:33:25;;;;;;;20.40;18.40;;;8.50;99.90;;;;;;5055126;28;20577;-68
2021/10/16 10:36:23;;;;;;;20.10;18.10;;;8.50;99.90;;;;;;5049071;28;20595;-68
2021/10/16 10:38:54;;;;;;;20.33;18.48;;;8.40;99.90;;;;;;5059866;28;20218;-68
2021/10/16 10:41:35;;;;;;;20.63;18.52;;;8.40;99.90;;;;;;5055787;28;20247;-68
2021/10/16 10:44:07;;;;;;;21.52;19.27;;;8.40;99.90;;;;;;5055960;28;20233;-69
2021/10/16 10:46:38;;;;;;;20.13;18.13;;;8.40;99.90;;;;;;5048323;28;20683;-68
2021/10/16 10:49:10;;;;;;;20.20;18.20;;;8.30;99.90;;;;;;5047500;28;20699;-68
2021/10/16 10:51:41;;;;;;;20.27;18.38;;;8.30;99.90;;;;;;5064653;28;20220;-67
2021/10/16 10:54:13;;;;;;;20.17;18.33;;;8.20;99.90;;;;;;5055374;28;20245;-68
2021/10/16 10:56:51;;;;;;;21.20;19.20;;;8.20;99.90;;;;;;5049136;28;20222;-67
2021/10/16 10:59:23;;;;;;;18.90;17.00;;;8.30;99.90;;;;;;5064284;28;20286;-68
2021/10/16 11:02:05;;;;;;;18.45;16.85;;;8.30;99.90;;;;;;5046895;28;20229;-68
2021/10/16 11:04:55;;;;;;;21.92;19.55;;;8.30;99.90;;;;;;5051029;28;20229;-68
2021/10/16 11:07:47;;;;;;;20.10;18.23;;;8.30;99.90;;;;;;5055901;28;20214;-68
2021/10/16 11:10:18;;;;;;;22.17;19.92;;;8.40;99.90;;;;;;5056719;28;20233;-68
2021/10/16 11:12:48;;;;;;;20.23;18.13;;;8.30;99.90;;;;;;5064439;28;20209;-68
2021/10/16 11:15:21;;;;;;;19.30;17.50;;;8.30;99.90;;;;;;5047109;28;20222;-67
2021/10/16 11:17:52;;;;;;;19.38;17.58;;;8.20;99.90;;;;;;5048582;28;20556;-67
2021/10/16 11:20:33;;;;;;;20.25;18.35;;;8.20;99.90;;;;;;5057847;28;20696;-67
2021/10/16 11:23:04;;;;;;;21.17;19.02;;;8.10;99.90;;;;;;5057459;28;20221;-67
2021/10/16 11:25:37;;;;;;;20.98;18.83;;;8.20;99.90;;;;;;5049492;28;20226;-68
2021/10/16 11:28:10;;;;;;;19.40;17.48;;;8.20;99.90;;;;;;5055158;28;20213;-68
2021/10/16 11:30:44;;;;;;;20.27;18.45;;;8.10;99.90;;;;;;5060680;28;20209;-68
2021/10/16 11:33:17;;;;;;;20.52;18.40;;;8.00;99.90;;;;;;5049784;28;20579;-68
2021/10/16 11:35:49;;;;;;;21.55;19.55;;;8.00;99.90;;;;;;5047112;28;20248;-68
2021/10/16 11:38:22;;;;;;;20.73;18.63;;;8.10;99.90;;;;;;5057810;28;20572;-68
2021/10/16 11:40:55;;;;;;;19.40;17.48;;;8.10;99.90;;;;;;5057531;28;20535;-68
2021/10/16 11:43:27;;;;;;;21.40;19.10;;;8.00;99.90;;;;;;5046496;28;20225;-68
2021/10/16 11:46:00;;;;;;;18.13;16.17;;;8.00;99.90;;;;;;5054474;28;20315;-68
2021/10/16 11:48:30;;;;;;;19.10;17.48;;;7.90;99.90;;;;;;5047483;28;20221;-68
2021/10/16 11:51:03;;;;;;;19.27;17.48;;;7.90;99.90;;;;;;5053920;28;20222;-68
2021/10/16 11:53:34;;;;;;;20.88;18.83;;;7.90;99.90;;;;;;5061168;28;20212;-68
2021/10/16 11:56:09;;;;;;;19.20;17.30;;;7.80;99.90;;;;;;5047531;28;20309;-68
2021/10/16 11:58:41;;;;;;;19.33;17.27;;;7.90;99.90;;;;;;5046312;28;20221;-67
2021/10/16 12:01:14;;;;;;;20.10;17.10;;;7.90;99.90;;;;;;5048728;28;20213;-67
2021/10/16 12:03:46;;;;;;;17.55;15.85;;;7.90;99.90;;;;;;5049097;28;20222;-67
2021/10/16 12:06:18;;;;;;;18.48;16.75;;;7.90;99.90;;;;;;5056966;28;20663;-67
2021/10/16 12:08:50;;;;;;;19.98;17.92;;;7.80;99.90;;;;;;5051168;28;20216;-67
2021/10/16 12:11:22;;;;;;;19.00;17.10;;;7.90;99.90;;;;;;5059544;28;20296;-68
2021/10/16 12:13:58;;;;;;;19.13;17.42;;;7.80;99.90;;;;;;5049272;28;20594;-67
2021/10/16 12:16:38;;;;;;;17.83;16.13;;;7.70;99.90;;;;;;5048384;28;20664;-68
2021/10/16 12:19:14;;;;;;;19.73;17.73;;;7.70;99.90;;;;;;5056950;28;20317;-68
2021/10/16 12:21:46;;;;;;;18.20;16.50;;;7.60;99.90;;;;;;5052528;28;20229;-68
2021/10/16 12:24:19;;;;;;;17.33;15.70;;;7.70;99.90;;;;;;5053267;28;20235;-68
2021/10/16 12:27:03;;;;;;;19.27;17.20;;;7.60;99.90;;;;;;5047172;28;20553;-67
2021/10/16 12:29:35;;;;;;;17.52;15.90;;;7.60;99.90;;;;;;5059767;28;20736;-67
2021/10/16 12:32:10;;;;;;;17.73;16.08;;;7.50;99.90;;;;;;5049021;28;20221;-67
2021/10/16 12:34:50;;;;;;;17.48;15.88;;;7.50;99.90;;;;;;5037998;28;20228;-67
2021/10/16 12:37:21;;;;;;;17.88;16.17;;;7.50;99.90;;;;;;5058537;28;20221;-67
2021/10/16 12:39:52;;;;;;;17.35;15.57;;;7.60;99.90;;;;;;5052953;28;20225;-68
2021/10/16 12:42:25;;;;;;;19.52;17.60;;;7.60;99.90;;;;;;5050002;28;20229;-67
2021/10/16 12:44:58;;;;;;;18.08;15.63;;;7.60;99.90;;;;;;5047451;28;20569;-67
2021/10/16 12:47:31;;;;;;;18.00;16.25;;;7.50;99.90;;;;;;5053383;28;20234;-67
2021/10/16 12:50:03;;;;;;;18.63;16.52;;;7.50;99.90;;;;;;5055568;28;20209;-67
2021/10/16 12:52:36;;;;;;;19.20;16.23;;;7.40;99.90;;;;;;5046600;28;20213;-68
2021/10/16 12:55:24;;;;;;;20.05;17.58;;;7.40;99.90;;;;;;5051708;28;20255;-67
2021/10/16 12:57:59;;;;;;;20.50;18.25;;;7.40;99.90;;;;;;5051194;28;20305;-68